createdAt,value
2023-02-14T00:00:02.061Z,20
2023-02-14T00:05:01.673Z,26
2023-02-14T00:10:02.102Z,20
2023-02-14T00:15:01.682Z,21
2023-02-14T00:20:02.190Z,23
2023-02-14T00:25:01.623Z,20
2023-02-14T00:30:02.184Z,19
2023-02-14T00:35:01.656Z,18
2023-02-14T00:40:02.154Z,27
2023-02-14T00:45:01.557Z,20
2023-02-14T00:50:01.937Z,21
2023-02-14T00:55:02.426Z,22
2023-02-14T01:00:02.236Z,26
2023-02-14T01:05:02.038Z,21
2023-02-14T01:10:01.449Z,19
2023-02-14T01:15:01.858Z,23
2023-02-14T01:20:02.359Z,26
2023-02-14T01:25:01.760Z,21
2023-02-14T01:30:02.422Z,19
2023-02-14T01:35:01.969Z,22
2023-02-14T01:40:01.429Z,22
2023-02-14T01:45:01.823Z,22
2023-02-14T01:50:02.337Z,24
2023-02-14T01:55:01.831Z,23
2023-02-14T02:00:02.230Z,21
2023-02-14T02:05:02.023Z,19
2023-02-14T02:10:01.422Z,23
2023-02-14T02:15:01.829Z,23
2023-02-14T02:20:02.266Z,26
2023-02-14T02:25:01.762Z,24
2023-02-14T02:30:02.277Z,18
2023-02-14T02:35:01.686Z,24
2023-02-14T02:40:02.101Z,22
2023-02-14T02:45:01.481Z,21
2023-02-14T02:50:01.968Z,22
2023-02-14T02:55:01.353Z,23
2023-02-14T03:00:01.919Z,21
2023-02-14T03:05:01.824Z,22
2023-02-14T03:10:01.381Z,23
2023-02-14T03:15:01.770Z,19
2023-02-14T03:20:02.215Z,25
2023-02-14T03:25:01.620Z,19
2023-02-14T03:30:02.084Z,22
2023-02-14T03:35:01.536Z,22
2023-02-14T03:40:02.350Z,21
2023-02-14T03:45:01.935Z,23
2023-02-14T03:50:01.362Z,20
2023-02-14T03:55:01.751Z,22
2023-02-14T04:00:02.141Z,20
2023-02-14T04:05:01.628Z,26
2023-02-14T04:10:01.999Z,20
2023-02-14T04:15:01.585Z,23
2023-02-14T04:20:02.423Z,20
2023-02-14T04:25:01.918Z,23
2023-02-14T04:30:02.361Z,23
2023-02-14T04:35:02.174Z,21
2023-02-14T04:40:01.703Z,22
2023-02-14T04:45:04.184Z,19
2023-02-14T04:50:02.256Z,20
2023-02-14T04:55:01.668Z,21
2023-02-14T05:00:02.489Z,21
2023-02-14T05:05:02.038Z,22
2023-02-14T05:10:01.890Z,21
2023-02-14T05:15:01.500Z,18
2023-02-14T05:20:02.076Z,20
2023-02-14T05:25:01.490Z,19
2023-02-14T05:30:01.949Z,20
2023-02-14T05:35:01.753Z,23
2023-02-14T05:40:02.151Z,18
2023-02-14T05:45:01.595Z,17
2023-02-14T05:50:02.028Z,17
2023-02-14T05:55:01.827Z,20
2023-02-14T06:00:02.650Z,22
2023-02-14T06:05:02.036Z,19
2023-02-14T06:10:01.782Z,23
2023-02-14T06:15:02.634Z,19
2023-02-14T06:20:02.081Z,18
2023-02-14T06:25:01.934Z,18
2023-02-14T06:30:02.470Z,17
2023-02-14T06:35:02.063Z,21
2023-02-14T06:40:01.610Z,22
2023-02-14T06:45:02.123Z,20
2023-02-14T06:50:01.506Z,20
2023-02-14T06:55:02.004Z,21
2023-02-14T07:00:01.610Z,25
2023-02-14T07:05:02.414Z,18
2023-02-14T07:10:01.835Z,18
2023-02-14T07:15:02.678Z,18
2023-02-14T07:20:02.129Z,19
2023-02-14T07:25:01.620Z,19
2023-02-14T07:30:02.200Z,17
2023-02-14T07:35:01.607Z,16
2023-02-14T07:40:02.436Z,18
2023-02-14T07:45:12.505Z,20
2023-02-14T07:50:02.227Z,17
2023-02-14T07:55:02.037Z,19
2023-02-14T08:00:01.884Z,18
2023-02-14T08:05:02.376Z,22
2023-02-14T08:10:01.950Z,20
2023-02-14T08:15:01.454Z,19
2023-02-14T08:20:01.923Z,19
2023-02-14T08:25:02.303Z,18
2023-02-14T08:30:01.867Z,22
2023-02-14T08:35:02.688Z,21
2023-02-14T08:40:02.075Z,25
2023-02-14T08:45:01.575Z,19
2023-02-14T08:50:02.382Z,21
2023-02-14T08:55:01.868Z,23
2023-02-14T09:00:02.300Z,21
2023-02-14T09:05:02.120Z,21
2023-02-14T09:10:01.960Z,19
2023-02-14T09:15:01.837Z,18
2023-02-14T09:20:01.478Z,27
2023-02-14T09:25:01.990Z,20
2023-02-14T09:30:01.574Z,23
2023-02-14T09:35:02.100Z,19
2023-02-14T09:40:01.542Z,22
2023-02-14T09:45:02.067Z,21
2023-02-14T09:50:01.515Z,22
2023-02-14T09:55:02.322Z,23
2023-02-14T10:00:02.177Z,21
2023-02-14T10:05:01.796Z,23
2023-02-14T10:10:02.335Z,22
2023-02-14T10:15:01.829Z,23
2023-02-14T10:20:02.302Z,19
2023-02-14T10:25:01.784Z,25
2023-02-14T10:30:02.233Z,21
2023-02-14T10:35:01.658Z,26
2023-02-14T10:40:02.477Z,23
2023-02-14T10:45:01.983Z,24
2023-02-14T10:50:01.764Z,21
2023-02-14T10:55:02.273Z,23
2023-02-14T11:00:01.802Z,25
2023-02-14T11:05:02.200Z,23
2023-02-14T11:10:01.614Z,28
2023-02-14T11:15:02.426Z,27
2023-02-14T11:20:01.918Z,27
2023-02-14T11:25:04.470Z,22
2023-02-14T11:30:02.299Z,27
2023-02-14T11:35:02.112Z,27
2023-02-14T11:40:01.637Z,25
2023-02-14T11:45:02.425Z,26
2023-02-14T11:50:01.901Z,25
2023-02-14T11:55:02.404Z,26
2023-02-14T12:00:01.940Z,24
2023-02-14T12:05:01.549Z,27
2023-02-14T12:10:02.076Z,26
2023-02-14T12:15:01.571Z,25
2023-02-14T12:20:02.456Z,24
2023-02-14T12:25:01.832Z,31
2023-02-14T12:30:02.267Z,30
2023-02-14T12:35:01.747Z,24
2023-02-14T12:40:02.208Z,33
2023-02-14T12:45:01.752Z,23
2023-02-14T12:50:02.271Z,24
2023-02-14T12:55:01.661Z,24
2023-02-14T13:00:02.480Z,25
2023-02-14T13:05:01.991Z,32
2023-02-14T13:10:01.572Z,24
2023-02-14T13:15:02.417Z,24
2023-02-14T13:20:02.283Z,23
2023-02-14T13:25:01.802Z,26
2023-02-14T13:30:02.650Z,30
2023-02-14T13:35:02.014Z,19
2023-02-14T13:40:01.528Z,28
2023-02-14T13:45:02.334Z,29
2023-02-14T13:50:01.730Z,27
2023-02-14T13:55:02.560Z,25
2023-02-14T14:00:01.948Z,24
2023-02-14T14:05:01.544Z,22
2023-02-14T14:10:01.935Z,20
2023-02-14T14:15:01.741Z,28
2023-02-14T14:20:02.609Z,27
2023-02-14T14:25:02.167Z,23
2023-02-14T14:30:01.618Z,21
2023-02-14T14:35:02.146Z,26
2023-02-14T14:40:01.693Z,26
2023-02-14T14:45:02.059Z,27
2023-02-14T14:50:01.420Z,26
2023-02-14T14:55:02.229Z,26
2023-02-14T15:00:01.637Z,37
2023-02-14T15:05:02.208Z,28
2023-02-14T15:10:01.616Z,30
2023-02-14T15:15:02.006Z,25
2023-02-14T15:20:01.443Z,33
2023-02-14T15:25:02.257Z,35
2023-02-14T15:30:01.696Z,29
2023-02-14T15:35:02.116Z,29
2023-02-14T15:40:01.665Z,32
2023-02-14T15:45:02.183Z,31
2023-02-14T15:50:02.698Z,37
2023-02-14T15:55:02.397Z,34
2023-02-14T16:00:01.880Z,39
2023-02-14T16:05:02.762Z,37
2023-02-14T16:10:02.291Z,41
2023-02-14T16:15:01.682Z,45
2023-02-14T16:20:02.236Z,38
2023-02-14T16:25:01.801Z,42
2023-02-14T16:30:02.698Z,42
2023-02-14T16:35:02.198Z,45
2023-02-14T16:40:01.689Z,38
2023-02-14T16:45:02.120Z,38
2023-02-14T16:50:01.614Z,40
2023-02-14T16:55:02.431Z,44
2023-02-14T17:00:01.820Z,47
2023-02-14T17:05:02.194Z,42
2023-02-14T17:10:01.680Z,48
2023-02-14T17:15:02.414Z,45
2023-02-14T17:20:01.860Z,49
2023-02-14T17:25:02.415Z,45
2023-02-14T17:30:01.874Z,45
2023-02-14T17:35:01.493Z,45
2023-02-14T17:40:02.144Z,45
2023-02-14T17:45:01.576Z,43
2023-02-14T17:50:02.015Z,54
2023-02-14T17:55:01.425Z,43
2023-02-14T18:00:02.096Z,40
2023-02-14T18:05:01.663Z,42
2023-02-14T18:10:02.103Z,41
2023-02-14T18:15:01.589Z,45
2023-02-14T18:20:02.041Z,39
2023-02-14T18:25:01.547Z,43
2023-02-14T18:30:02.517Z,42
2023-02-14T18:35:01.961Z,38
2023-02-14T18:40:01.403Z,37
2023-02-14T18:45:01.982Z,48
2023-02-14T18:50:01.778Z,38
2023-02-14T18:55:02.325Z,37
2023-02-14T19:00:02.143Z,40
2023-02-14T19:05:01.625Z,44
2023-02-14T19:10:02.010Z,44
2023-02-14T19:15:01.394Z,42
2023-02-14T19:20:01.833Z,38
2023-02-14T19:25:02.626Z,36
2023-02-14T19:30:02.490Z,37
2023-02-14T19:35:01.897Z,37
2023-02-14T19:40:02.433Z,41
2023-02-14T19:45:01.867Z,36
2023-02-14T19:50:02.666Z,44
2023-02-14T19:55:02.197Z,39
2023-02-14T20:00:01.569Z,40
2023-02-14T20:05:01.970Z,45
2023-02-14T20:10:01.816Z,45
2023-02-14T20:15:02.295Z,41
2023-02-14T20:20:02.175Z,43
2023-02-14T20:25:01.660Z,40
2023-02-14T20:30:02.207Z,46
2023-02-14T20:35:01.751Z,46
2023-02-14T20:40:02.579Z,40
2023-02-14T20:45:01.964Z,39
2023-02-14T20:50:01.453Z,37
2023-02-14T20:55:02.247Z,47
2023-02-14T21:00:02.071Z,39
2023-02-14T21:05:01.882Z,42
2023-02-14T21:10:02.300Z,43
2023-02-14T21:15:01.666Z,42
2023-02-14T21:20:02.238Z,45
2023-02-14T21:25:01.605Z,51
2023-02-14T21:30:02.033Z,42
2023-02-14T21:35:01.852Z,53
2023-02-14T21:40:02.257Z,48
2023-02-14T21:45:01.661Z,49
2023-02-14T21:50:02.034Z,49
2023-02-14T21:55:01.573Z,46
2023-02-14T22:00:02.169Z,49
2023-02-14T22:05:01.992Z,56
2023-02-14T22:10:01.844Z,50
2023-02-14T22:15:02.447Z,46
2023-02-14T22:20:02.096Z,59
2023-02-14T22:25:01.711Z,47
2023-02-14T22:30:02.307Z,53
2023-02-14T22:35:02.157Z,52
2023-02-14T22:40:01.747Z,52
2023-02-14T22:45:02.569Z,47
2023-02-14T22:50:01.945Z,47
2023-02-14T22:55:01.774Z,54
2023-02-14T23:00:02.295Z,48
2023-02-14T23:05:02.332Z,43
2023-02-14T23:10:01.728Z,53
2023-02-14T23:15:02.263Z,53
2023-02-14T23:20:01.756Z,47
2023-02-14T23:25:02.569Z,49
2023-02-14T23:30:02.122Z,49
2023-02-14T23:35:01.537Z,45
2023-02-14T23:40:01.975Z,49
2023-02-14T23:45:01.495Z,57
2023-02-14T23:50:01.994Z,44
2023-02-14T23:55:01.397Z,49
